createdAt,value
2018-12-29T00:01:17.997Z,82.60
2018-12-29T00:03:45.772Z,82.10
2018-12-29T00:06:13.967Z,81.90
2018-12-29T00:08:42.058Z,81.90
2018-12-29T00:11:10.204Z,82.00
2018-12-29T00:13:37.861Z,82.00
2018-12-29T00:16:05.893Z,82.00
2018-12-29T00:18:33.237Z,82.10
2018-12-29T00:21:01.558Z,82.20
2018-12-29T00:23:30.066Z,82.20
2018-12-29T00:25:58.818Z,82.50
2018-12-29T00:30:55.293Z,82.00
2018-12-29T00:33:23.347Z,82.00
2018-12-29T00:35:51.463Z,82.00
2018-12-29T00:38:20.220Z,81.90
2018-12-29T00:40:48.704Z,82.00
2018-12-29T00:43:16.379Z,81.90
2018-12-29T00:45:45.541Z,81.90
2018-12-29T00:48:14.561Z,81.90
2018-12-29T00:50:42.953Z,81.90
2018-12-29T00:53:10.994Z,81.90
2018-12-29T00:55:38.674Z,81.90
2018-12-29T00:58:09.114Z,81.90
2018-12-29T01:00:37.171Z,81.90
2018-12-29T01:03:05.949Z,81.90
2018-12-29T01:05:33.826Z,82.00
2018-12-29T01:08:02.615Z,81.90
2018-12-29T01:10:31.099Z,82.20
2018-12-29T01:12:58.866Z,81.90
2018-12-29T01:17:54.896Z,81.00
2018-12-29T01:20:22.507Z,81.90
2018-12-29T01:22:50.548Z,82.50
2018-12-29T01:25:19.225Z,81.90
2018-12-29T01:27:48.101Z,81.80
2018-12-29T01:30:16.180Z,81.90
2018-12-29T01:32:43.952Z,81.90
2018-12-29T01:35:11.927Z,81.70
2018-12-29T01:37:40.303Z,81.90
2018-12-29T01:40:08.356Z,81.90
2018-12-29T01:42:36.388Z,81.90
2018-12-29T01:45:04.752Z,81.90
2018-12-29T01:47:33.202Z,82.00
2018-12-29T01:50:01.603Z,81.90
2018-12-29T01:52:29.935Z,82.00
2018-12-29T01:54:58.239Z,81.30
2018-12-29T01:57:26.887Z,81.60
2018-12-29T01:59:55.358Z,82.00
2018-12-29T02:02:24.037Z,81.60
2018-12-29T02:04:52.876Z,82.00
2018-12-29T02:07:21.691Z,82.20
2018-12-29T02:09:50.092Z,82.50
2018-12-29T02:12:18.643Z,81.90
2018-12-29T02:14:46.711Z,81.90
2018-12-29T02:17:14.767Z,81.90
2018-12-29T02:19:43.256Z,82.00
2018-12-29T02:22:11.821Z,82.00
2018-12-29T02:24:40.634Z,82.00
2018-12-29T02:27:09.324Z,82.00
2018-12-29T02:29:37.389Z,82.00
2018-12-29T02:32:06.743Z,82.00
2018-12-29T02:34:34.879Z,82.00
2018-12-29T02:37:03.061Z,82.10
2018-12-29T02:39:31.006Z,82.60
2018-12-29T02:41:59.098Z,82.80
2018-12-29T02:44:27.679Z,82.20
2018-12-29T02:46:55.762Z,82.00
2018-12-29T02:49:24.111Z,82.40
2018-12-29T02:51:51.868Z,82.20
2018-12-29T02:54:20.006Z,83.00
2018-12-29T02:56:48.027Z,82.80
2018-12-29T02:59:16.332Z,82.50
2018-12-29T03:01:45.125Z,83.00
2018-12-29T03:04:13.184Z,82.70
2018-12-29T03:06:42.073Z,82.40
2018-12-29T03:09:10.044Z,83.10
2018-12-29T03:11:38.402Z,83.00
2018-12-29T03:14:06.951Z,82.20
2018-12-29T03:16:35.574Z,83.20
2018-12-29T03:19:05.421Z,82.90
2018-12-29T03:21:35.361Z,83.00
2018-12-29T03:24:04.931Z,82.80
2018-12-29T03:26:33.550Z,83.00
2018-12-29T03:29:03.735Z,83.30
2018-12-29T03:31:32.513Z,82.80
2018-12-29T03:34:01.434Z,83.30
2018-12-29T03:36:30.306Z,83.10
2018-12-29T03:38:58.652Z,82.60
2018-12-29T03:41:27.099Z,83.00
2018-12-29T03:43:55.142Z,83.00
2018-12-29T03:48:52.247Z,82.80
2018-12-29T03:51:19.869Z,82.80
2018-12-29T03:53:50.007Z,82.30
2018-12-29T03:56:18.058Z,82.90
2018-12-29T03:58:48.066Z,82.60
2018-12-29T04:01:18.065Z,82.50
2018-12-29T04:03:46.164Z,82.20
2018-12-29T04:06:16.997Z,82.00
2018-12-29T04:09:22.413Z,82.00
2018-12-29T04:11:50.839Z,82.10
2018-12-29T04:14:19.629Z,82.10
2018-12-29T04:16:49.296Z,82.00
2018-12-29T04:19:17.998Z,82.10
2018-12-29T04:21:46.492Z,82.50
2018-12-29T04:24:15.054Z,82.50
2018-12-29T04:26:47.376Z,82.60
2018-12-29T04:29:14.808Z,82.80
2018-12-29T04:31:43.175Z,83.00
2018-12-29T04:34:13.047Z,82.90
2018-12-29T04:36:43.835Z,82.80
2018-12-29T04:39:13.761Z,83.10
2018-12-29T04:41:41.824Z,83.20
2018-12-29T04:44:10.148Z,83.50
2018-12-29T04:46:37.957Z,83.80
2018-12-29T04:49:05.720Z,83.90
2018-12-29T04:51:34.111Z,83.90
2018-12-29T04:54:01.428Z,83.70
2018-12-29T04:56:29.463Z,83.70
2018-12-29T04:58:59.309Z,83.80
2018-12-29T05:01:27.759Z,83.70
2018-12-29T05:03:56.684Z,83.70
2018-12-29T05:06:24.795Z,83.80
2018-12-29T05:08:53.988Z,84.00
2018-12-29T05:11:21.235Z,84.20
2018-12-29T05:13:49.880Z,84.10
2018-12-29T05:16:18.111Z,84.50
2018-12-29T05:18:46.279Z,84.60
2018-12-29T05:21:15.900Z,85.00
2018-12-29T05:23:44.271Z,84.80
2018-12-29T05:26:12.360Z,84.90
2018-12-29T05:28:41.127Z,84.90
2018-12-29T05:31:10.459Z,84.50
2018-12-29T05:33:39.218Z,84.80
2018-12-29T05:36:07.219Z,85.50
2018-12-29T05:38:35.888Z,85.80
2018-12-29T05:41:04.394Z,86.30
2018-12-29T05:43:32.848Z,86.20
2018-12-29T05:46:01.268Z,86.40
2018-12-29T05:48:30.128Z,85.60
2018-12-29T05:50:57.466Z,85.80
2018-12-29T05:53:26.252Z,86.10
2018-12-29T05:55:54.903Z,85.30
2018-12-29T05:58:23.556Z,85.50
2018-12-29T06:00:51.621Z,85.70
2018-12-29T06:03:20.314Z,85.80
2018-12-29T06:05:48.655Z,85.90
2018-12-29T06:08:17.382Z,85.40
2018-12-29T06:13:13.615Z,85.10
2018-12-29T06:15:42.349Z,85.40
2018-12-29T06:20:37.999Z,85.50
2018-12-29T06:23:06.017Z,85.50
2018-12-29T06:25:34.481Z,85.30
2018-12-29T06:28:03.241Z,85.30
2018-12-29T06:30:31.548Z,85.20
2018-12-29T06:32:59.823Z,85.00
2018-12-29T06:35:27.791Z,85.70
2018-12-29T06:37:58.268Z,85.60
2018-12-29T06:40:25.955Z,85.80
2018-12-29T06:42:54.253Z,86.10
2018-12-29T06:45:22.295Z,85.30
2018-12-29T06:47:50.366Z,85.60
2018-12-29T06:50:18.048Z,85.40
2018-12-29T06:52:46.134Z,85.60
2018-12-29T06:55:15.219Z,85.20
2018-12-29T06:57:43.157Z,85.30
2018-12-29T07:00:12.187Z,85.50
2018-12-29T07:02:41.120Z,85.00
2018-12-29T07:07:39.045Z,84.80
2018-12-29T07:10:08.676Z,84.60
2018-12-29T07:12:37.197Z,84.50
2018-12-29T07:15:05.146Z,84.20
2018-12-29T07:17:33.191Z,84.10
2018-12-29T07:20:01.288Z,84.90
2018-12-29T07:22:29.652Z,85.50
2018-12-29T07:24:57.615Z,85.10
2018-12-29T07:27:26.297Z,85.20
2018-12-29T07:29:54.561Z,85.50
2018-12-29T07:32:22.785Z,86.70
2018-12-29T07:39:46.148Z,85.50
2018-12-29T07:42:13.881Z,85.60
2018-12-29T07:44:42.315Z,85.50
2018-12-29T07:47:11.253Z,85.60
2018-12-29T07:49:38.901Z,86.10
2018-12-29T07:52:06.604Z,85.90
2018-12-29T07:54:35.126Z,85.50
2018-12-29T07:57:02.697Z,85.60
2018-12-29T07:59:30.818Z,85.60
2018-12-29T08:01:58.851Z,85.20
2018-12-29T08:09:23.254Z,85.70
2018-12-29T08:11:51.676Z,85.00
2018-12-29T08:14:25.188Z,85.00
2018-12-29T08:16:56.977Z,85.10
2018-12-29T08:19:24.007Z,85.00
2018-12-29T08:21:52.209Z,85.00
2018-12-29T08:24:20.445Z,85.10
2018-12-29T08:26:48.454Z,85.50
2018-12-29T08:29:16.647Z,85.90
2018-12-29T08:31:44.720Z,85.60
2018-12-29T08:34:12.381Z,85.70
2018-12-29T08:36:40.394Z,86.10
2018-12-29T08:39:09.888Z,86.00
2018-12-29T08:41:42.176Z,86.20
2018-12-29T08:44:24.422Z,85.80
2018-12-29T08:46:50.801Z,85.50
2018-12-29T08:49:23.995Z,85.80
2018-12-29T08:51:58.890Z,85.70
2018-12-29T08:56:57.499Z,85.80
2018-12-29T09:01:54.135Z,85.60
2018-12-29T09:04:22.987Z,86.00
2018-12-29T09:06:51.843Z,85.90
2018-12-29T09:09:20.539Z,86.00
2018-12-29T09:11:48.902Z,86.10
2018-12-29T09:14:16.587Z,85.80
2018-12-29T09:16:46.701Z,86.00
2018-12-29T09:21:44.725Z,85.30
2018-12-29T09:24:12.854Z,85.10
2018-12-29T09:26:41.515Z,85.50
2018-12-29T09:29:11.056Z,85.50
2018-12-29T09:31:39.419Z,85.20
2018-12-29T09:34:09.728Z,85.60
2018-12-29T09:36:38.268Z,85.50
2018-12-29T09:41:35.545Z,85.30
2018-12-29T09:44:03.670Z,84.70
2018-12-29T09:49:00.316Z,84.80
2018-12-29T09:51:28.176Z,84.20
2018-12-29T09:53:56.861Z,84.40
2018-12-29T09:56:25.321Z,84.50
2018-12-29T09:58:55.256Z,84.90
2018-12-29T10:01:25.654Z,84.20
2018-12-29T10:03:54.114Z,84.20
2018-12-29T10:06:23.323Z,83.80
2018-12-29T10:08:51.605Z,84.00
2018-12-29T10:11:21.504Z,84.70
2018-12-29T10:13:50.923Z,84.50
2018-12-29T10:16:19.068Z,84.60
2018-12-29T10:18:50.806Z,84.20
2018-12-29T10:21:20.088Z,83.90
2018-12-29T10:23:48.087Z,84.20
2018-12-29T10:26:16.288Z,84.80
2018-12-29T10:28:44.009Z,85.00
2018-12-29T10:31:13.747Z,83.10
2018-12-29T10:33:42.480Z,84.60
2018-12-29T10:36:10.683Z,84.70
2018-12-29T10:38:44.676Z,85.20
2018-12-29T10:41:13.193Z,85.10
2018-12-29T10:43:45.454Z,83.80
2018-12-29T10:48:41.816Z,84.10
2018-12-29T10:51:10.711Z,84.50
2018-12-29T10:56:08.690Z,84.80
2018-12-29T10:58:40.899Z,84.90
2018-12-29T11:03:38.874Z,84.80
2018-12-29T11:06:07.424Z,84.80
2018-12-29T11:08:35.907Z,84.90
2018-12-29T11:11:04.676Z,84.70
2018-12-29T11:13:38.888Z,85.50
2018-12-29T11:16:08.765Z,85.00
2018-12-29T11:18:37.193Z,85.30
2018-12-29T11:21:05.174Z,85.70
2018-12-29T11:23:33.651Z,85.10
2018-12-29T11:26:02.901Z,85.80
2018-12-29T11:28:31.526Z,86.40
2018-12-29T11:31:00.061Z,86.20
2018-12-29T11:33:28.342Z,85.90
2018-12-29T11:35:56.817Z,86.00
2018-12-29T11:38:24.985Z,85.60
2018-12-29T11:40:54.562Z,87.00
2018-12-29T11:43:25.854Z,86.00
2018-12-29T11:45:54.193Z,85.90
2018-12-29T11:48:22.880Z,86.30
2018-12-29T11:50:51.708Z,86.30
2018-12-29T11:53:20.409Z,86.50
2018-12-29T11:55:48.597Z,86.20
2018-12-29T11:58:17.116Z,86.20
2018-12-29T12:00:45.587Z,86.20
2018-12-29T12:03:14.100Z,87.10
2018-12-29T12:05:42.371Z,85.90
2018-12-29T12:08:10.130Z,86.10
2018-12-29T12:10:40.137Z,85.70
2018-12-29T12:13:08.563Z,85.70
2018-12-29T12:15:37.050Z,85.60
2018-12-29T12:18:05.544Z,86.00
2018-12-29T12:20:34.288Z,85.90
2018-12-29T12:23:02.755Z,86.20
2018-12-29T12:25:31.228Z,85.70
2018-12-29T12:28:00.144Z,86.00
2018-12-29T12:30:29.212Z,86.50
2018-12-29T12:32:56.961Z,86.60
2018-12-29T12:35:25.517Z,87.00
2018-12-29T12:37:54.061Z,86.50
2018-12-29T12:40:24.924Z,87.30
2018-12-29T12:42:53.691Z,87.10
2018-12-29T12:45:21.664Z,86.00
2018-12-29T12:47:49.445Z,86.30
2018-12-29T12:50:17.795Z,86.90
2018-12-29T12:52:48.109Z,87.10
2018-12-29T12:55:17.743Z,86.80
2018-12-29T12:57:46.042Z,87.80
2018-12-29T13:00:14.720Z,88.10
2018-12-29T13:02:43.015Z,86.40
2018-12-29T13:05:11.490Z,87.20
2018-12-29T13:07:40.132Z,87.20
2018-12-29T13:10:08.230Z,87.40
2018-12-29T13:12:38.158Z,87.30
2018-12-29T13:15:07.529Z,88.00
2018-12-29T13:17:36.211Z,87.60
2018-12-29T13:20:05.136Z,87.10
2018-12-29T13:22:33.915Z,86.80
2018-12-29T13:25:02.715Z,86.60
2018-12-29T13:27:31.310Z,86.10
2018-12-29T13:29:59.857Z,86.40
2018-12-29T13:32:28.307Z,87.60
2018-12-29T13:34:56.556Z,87.60
2018-12-29T13:37:24.420Z,87.00
2018-12-29T13:39:53.256Z,86.80
2018-12-29T13:42:22.270Z,86.80
2018-12-29T13:44:50.049Z,86.90
2018-12-29T13:47:18.814Z,87.30
2018-12-29T13:49:48.363Z,86.90
2018-12-29T13:52:16.820Z,86.50
2018-12-29T13:54:56.249Z,86.80
2018-12-29T13:57:24.440Z,86.60
2018-12-29T13:59:53.070Z,86.80
2018-12-29T14:02:21.472Z,87.10
2018-12-29T14:04:49.862Z,87.00
2018-12-29T14:07:18.679Z,87.20
2018-12-29T14:09:47.671Z,88.00
2018-12-29T14:12:15.951Z,88.00
2018-12-29T14:14:44.421Z,88.50
2018-12-29T14:17:12.175Z,88.90
2018-12-29T14:19:41.654Z,89.60
2018-12-29T14:22:10.072Z,89.50
2018-12-29T14:24:38.347Z,89.80
2018-12-29T14:27:07.211Z,89.70
2018-12-29T14:29:34.904Z,90.20
2018-12-29T14:32:04.486Z,89.70
2018-12-29T14:34:32.876Z,89.90
2018-12-29T14:37:01.367Z,89.80
2018-12-29T14:39:29.526Z,90.30
2018-12-29T14:41:57.717Z,90.30
2018-12-29T14:44:26.726Z,90.60
2018-12-29T14:46:55.747Z,90.10
2018-12-29T14:49:24.163Z,90.20
2018-12-29T14:51:52.005Z,90.40
2018-12-29T14:54:20.304Z,90.70
2018-12-29T14:56:49.001Z,90.40
2018-12-29T14:59:17.069Z,90.40
2018-12-29T15:01:46.225Z,91.00
2018-12-29T15:04:13.764Z,90.20
2018-12-29T15:06:42.246Z,90.40
2018-12-29T15:09:10.885Z,90.40
2018-12-29T15:11:39.018Z,90.50
2018-12-29T15:14:06.672Z,90.50
2018-12-29T15:16:36.069Z,90.30
2018-12-29T15:19:04.197Z,90.50
2018-12-29T15:21:33.245Z,91.00
2018-12-29T15:24:01.695Z,90.30
2018-12-29T15:26:29.792Z,90.10
2018-12-29T15:28:57.520Z,90.10
2018-12-29T15:31:26.014Z,90.10
2018-12-29T15:33:54.163Z,90.10
2018-12-29T15:36:23.332Z,89.30
2018-12-29T15:38:51.988Z,90.20
2018-12-29T15:41:20.425Z,90.10
2018-12-29T15:43:48.567Z,90.00
2018-12-29T15:46:16.264Z,89.40
2018-12-29T15:48:50.927Z,89.30
2018-12-29T15:51:14.167Z,89.30
2018-12-29T15:53:42.722Z,89.80
2018-12-29T15:56:10.512Z,89.20
2018-12-29T15:58:38.650Z,89.80
2018-12-29T16:01:07.458Z,89.70
2018-12-29T16:03:35.667Z,90.00
2018-12-29T16:06:05.142Z,89.80
2018-12-29T16:08:33.099Z,89.80
2018-12-29T16:11:01.253Z,90.20
2018-12-29T16:13:29.752Z,89.80
2018-12-29T16:15:58.162Z,89.80
2018-12-29T16:18:28.503Z,89.60
2018-12-29T16:20:57.992Z,89.60
2018-12-29T16:23:27.328Z,89.60
2018-12-29T16:25:56.015Z,89.20
2018-12-29T16:28:25.071Z,89.60
2018-12-29T16:30:55.014Z,89.80
2018-12-29T16:33:24.895Z,89.70
2018-12-29T16:35:53.007Z,90.00
2018-12-29T16:38:21.531Z,89.50
2018-12-29T16:40:57.624Z,88.70
2018-12-29T16:43:19.977Z,89.50
2018-12-29T16:45:48.491Z,88.80
2018-12-29T16:48:17.136Z,89.40
2018-12-29T16:50:47.055Z,89.60
2018-12-29T16:53:14.530Z,89.50
2018-12-29T16:55:43.626Z,88.90
2018-12-29T16:58:12.084Z,88.80
2018-12-29T17:00:40.515Z,88.30
2018-12-29T17:03:09.367Z,88.80
2018-12-29T17:05:38.473Z,88.60
2018-12-29T17:08:06.740Z,89.10
2018-12-29T17:10:35.216Z,88.60
2018-12-29T17:13:04.031Z,88.70
2018-12-29T17:15:32.933Z,89.10
2018-12-29T17:18:01.607Z,89.10
2018-12-29T17:20:30.479Z,89.10
2018-12-29T17:22:59.375Z,89.00
2018-12-29T17:25:28.517Z,89.00
2018-12-29T17:27:57.139Z,88.80
2018-12-29T17:30:26.354Z,89.40
2018-12-29T17:32:54.171Z,89.50
2018-12-29T17:35:23.165Z,89.00
2018-12-29T17:37:51.699Z,88.30
2018-12-29T17:40:19.890Z,89.00
2018-12-29T17:42:47.288Z,89.00
2018-12-29T17:45:16.445Z,88.90
2018-12-29T17:47:44.599Z,89.00
2018-12-29T17:50:12.674Z,88.90
2018-12-29T17:52:40.833Z,88.90
2018-12-29T17:55:09.620Z,89.60
2018-12-29T17:57:38.207Z,89.70
2018-12-29T18:00:06.336Z,90.30
2018-12-29T18:02:35.147Z,90.40
2018-12-29T18:05:04.704Z,90.40
2018-12-29T18:07:32.774Z,90.70
2018-12-29T18:10:01.272Z,90.90
2018-12-29T18:12:29.428Z,90.70
2018-12-29T18:14:57.911Z,90.70
2018-12-29T18:17:26.476Z,90.90
2018-12-29T18:19:56.764Z,90.70
2018-12-29T18:22:25.068Z,90.70
2018-12-29T18:24:54.269Z,90.70
2018-12-29T18:27:23.043Z,90.70
2018-12-29T18:29:51.270Z,90.70
2018-12-29T18:32:19.174Z,91.00
2018-12-29T18:34:48.945Z,90.90
2018-12-29T18:37:17.803Z,90.90
2018-12-29T18:39:46.303Z,90.90
2018-12-29T18:42:14.978Z,90.80
2018-12-29T18:44:43.456Z,91.20
2018-12-29T18:47:11.647Z,90.70
2018-12-29T18:49:39.827Z,91.10
2018-12-29T18:52:08.435Z,91.50
2018-12-29T18:54:36.972Z,91.80
2018-12-29T18:57:05.186Z,91.60
2018-12-29T18:59:33.727Z,91.50
2018-12-29T19:02:02.983Z,91.90
2018-12-29T19:04:31.923Z,91.70
2018-12-29T19:07:00.944Z,91.80
2018-12-29T19:09:29.443Z,92.00
2018-12-29T19:11:57.995Z,91.80
2018-12-29T19:14:26.274Z,91.50
2018-12-29T19:16:56.532Z,91.60
2018-12-29T19:19:24.884Z,91.60
2018-12-29T19:21:52.970Z,91.70
2018-12-29T19:24:21.646Z,91.30
2018-12-29T19:26:49.802Z,91.60
2018-12-29T19:29:17.569Z,91.60
2018-12-29T19:31:47.670Z,92.00
2018-12-29T19:34:16.402Z,92.20
2018-12-29T19:36:45.087Z,91.80
2018-12-29T19:39:13.858Z,91.80
2018-12-29T19:41:46.506Z,91.60
2018-12-29T19:44:13.070Z,91.80
2018-12-29T19:46:41.628Z,91.70
2018-12-29T19:49:09.446Z,91.60
2018-12-29T19:51:37.748Z,92.00
2018-12-29T19:54:06.386Z,91.90
2018-12-29T19:56:34.789Z,92.10
2018-12-29T19:59:04.190Z,92.50
2018-12-29T20:01:32.693Z,92.40
2018-12-29T20:04:03.483Z,92.40
2018-12-29T20:06:31.786Z,92.40
2018-12-29T20:09:00.542Z,92.80
2018-12-29T20:11:29.636Z,92.70
2018-12-29T20:13:58.135Z,92.60
2018-12-29T20:16:26.302Z,92.50
2018-12-29T20:18:55.292Z,92.80
2018-12-29T20:21:23.476Z,92.90
2018-12-29T20:23:52.126Z,92.60
2018-12-29T20:26:20.246Z,92.30
2018-12-29T20:28:48.625Z,92.20
2018-12-29T20:31:23.833Z,92.10
2018-12-29T20:33:52.178Z,92.40
2018-12-29T20:36:20.829Z,92.10
2018-12-29T20:38:48.810Z,92.10
2018-12-29T20:41:17.785Z,92.30
2018-12-29T20:43:47.316Z,91.60
2018-12-29T20:46:15.864Z,92.00
2018-12-29T20:48:44.471Z,92.10
2018-12-29T20:51:14.425Z,92.00
2018-12-29T20:53:42.257Z,92.40
2018-12-29T20:56:11.250Z,92.40
2018-12-29T20:58:39.852Z,92.40
2018-12-29T21:01:18.933Z,92.70
2018-12-29T21:03:47.477Z,92.60
2018-12-29T21:06:15.772Z,92.20
2018-12-29T21:08:44.115Z,92.50
2018-12-29T21:11:13.521Z,92.20
2018-12-29T21:16:09.926Z,92.10
2018-12-29T21:18:41.574Z,92.20
2018-12-29T21:21:10.668Z,92.20
2018-12-29T21:23:39.257Z,92.00
2018-12-29T21:26:08.027Z,91.90
2018-12-29T21:28:36.596Z,92.10
2018-12-29T21:31:06.290Z,92.30
2018-12-29T21:33:35.410Z,92.40
2018-12-29T21:36:04.777Z,92.30
2018-12-29T21:38:33.328Z,92.20
2018-12-29T21:41:01.863Z,92.70
2018-12-29T21:43:32.161Z,92.50
2018-12-29T21:46:01.905Z,92.30
2018-12-29T21:48:30.485Z,92.60
2018-12-29T21:50:58.506Z,92.70
2018-12-29T21:53:27.057Z,92.30
2018-12-29T21:55:55.306Z,92.30
2018-12-29T21:58:23.449Z,92.60
2018-12-29T22:00:51.488Z,92.70
2018-12-29T22:03:20.408Z,92.90
2018-12-29T22:05:49.091Z,92.40
2018-12-29T22:08:17.705Z,92.60
2018-12-29T22:10:46.265Z,92.40
2018-12-29T22:13:15.092Z,92.50
2018-12-29T22:15:44.023Z,92.30
2018-12-29T22:23:09.081Z,92.00
2018-12-29T22:25:37.251Z,92.30
2018-12-29T22:28:05.590Z,92.10
2018-12-29T22:30:35.276Z,92.10
2018-12-29T22:33:03.652Z,91.80
2018-12-29T22:35:32.207Z,91.40
2018-12-29T22:38:01.021Z,91.40
2018-12-29T22:40:29.511Z,91.70
2018-12-29T22:42:58.043Z,91.50
2018-12-29T22:45:26.885Z,91.30
2018-12-29T22:47:55.916Z,91.50
2018-12-29T22:50:24.862Z,91.40
2018-12-29T22:52:53.707Z,91.40
2018-12-29T22:55:23.798Z,91.40
2018-12-29T22:57:52.397Z,91.40
2018-12-29T23:00:39.044Z,91.50
2018-12-29T23:03:07.861Z,91.50
2018-12-29T23:05:36.134Z,91.50
2018-12-29T23:08:04.315Z,91.70
2018-12-29T23:10:32.878Z,91.10
2018-12-29T23:13:01.593Z,91.30
2018-12-29T23:15:29.741Z,91.00
2018-12-29T23:17:58.000Z,91.20
2018-12-29T23:20:26.832Z,91.00
2018-12-29T23:22:56.410Z,91.10
2018-12-29T23:25:24.418Z,91.00
2018-12-29T23:27:54.938Z,90.90
2018-12-29T23:30:23.195Z,91.00
2018-12-29T23:32:52.137Z,91.10
2018-12-29T23:35:21.379Z,90.70
2018-12-29T23:37:49.445Z,90.80
2018-12-29T23:40:19.069Z,91.00
2018-12-29T23:42:47.606Z,90.80
2018-12-29T23:45:15.923Z,90.80
2018-12-29T23:47:44.720Z,90.90
2018-12-29T23:50:13.630Z,90.80
2018-12-29T23:52:46.202Z,90.70
2018-12-29T23:55:17.834Z,90.70
2018-12-29T23:57:46.792Z,90.50
